Terminal Aerodrome Forecast
Issued by NWS Los Angeles, CA

Home | Current Version | Previous Version | Text Only | Print | Product List | Glossary On
Versions: 1 2 3 4 5 6 7 8 9 10 11 12 13 14
613
FTUS46 KLOX 192321
TAFSMX
TAF
KSMX 192321Z 2000/2024 30020G30KT P6SM SCT050
     FM200200 30012KT P6SM SKC
     FM200600 VRB03KT P6SM SKC
     FM201100 VRB03KT 4SM BR BKN004
     FM201600 VRB03KT P6SM SKC
     FM201800 32008KT P6SM SKC
     FM202100 31015KT P6SM SKC=

USA.gov is the U.S. government's official web portal to all federal, state and local government web resources and services.